createdAt,value
2022-08-07T00:00:18.703Z,23.80
2022-08-07T00:02:35.446Z,23.90
2022-08-07T00:02:44.840Z,23.90
2022-08-07T00:03:47.635Z,23.60
2022-08-07T00:04:50.013Z,23.60
2022-08-07T00:05:53.210Z,23.60
2022-08-07T00:06:56.345Z,23.70
2022-08-07T00:08:04.484Z,23.80
2022-08-07T00:09:16.684Z,23.80
2022-08-07T00:10:26.137Z,23.80
2022-08-07T00:11:30.012Z,23.90
2022-08-07T00:12:35.638Z,23.90
2022-08-07T00:13:57.870Z,23.90
2022-08-07T00:15:01.695Z,23.90
2022-08-07T00:16:05.164Z,23.90
2022-08-07T00:17:10.309Z,23.90
2022-08-07T00:18:19.779Z,23.90
2022-08-07T00:20:00.173Z,23.90
2022-08-07T00:20:51.298Z,23.90
2022-08-07T00:21:56.540Z,24.00
2022-08-07T00:23:08.026Z,24.00
2022-08-07T00:24:11.163Z,24.10
2022-08-07T00:25:16.773Z,24.10
2022-08-07T00:26:49.127Z,24.10
2022-08-07T00:27:53.642Z,24.10
2022-08-07T00:28:58.905Z,24.10
2022-08-07T00:30:02.397Z,24.20
2022-08-07T00:31:12.715Z,24.20
2022-08-07T00:32:20.125Z,24.20
2022-08-07T00:33:32.769Z,24.20
2022-08-07T00:34:35.663Z,24.20
2022-08-07T00:35:38.226Z,24.20
2022-08-07T00:36:42.999Z,24.20
2022-08-07T00:37:48.345Z,24.20
2022-08-07T00:38:50.861Z,24.20
2022-08-07T00:39:56.645Z,24.20
2022-08-07T00:40:59.444Z,24.20
2022-08-07T00:42:05.241Z,24.10
2022-08-07T00:43:09.953Z,24.10
2022-08-07T00:44:12.942Z,24.10
2022-08-07T00:45:17.499Z,24.10
2022-08-07T00:46:20.049Z,24.10
2022-08-07T00:48:09.459Z,24.00
2022-08-07T00:48:49.920Z,24.00
2022-08-07T00:50:21.414Z,24.10
2022-08-07T00:51:16.816Z,24.00
2022-08-07T00:52:19.900Z,24.00
2022-08-07T00:53:23.209Z,24.00
2022-08-07T00:54:25.568Z,24.00
2022-08-07T00:56:02.206Z,24.00
2022-08-07T00:56:52.015Z,24.00
2022-08-07T00:57:56.326Z,24.00
2022-08-07T00:58:58.947Z,24.00
2022-08-07T01:00:01.888Z,24.00
2022-08-07T01:01:06.104Z,24.00
2022-08-07T01:02:14.219Z,24.00
2022-08-07T01:03:56.344Z,24.00
2022-08-07T01:04:54.645Z,24.00
2022-08-07T01:06:01.488Z,23.90
2022-08-07T01:07:04.923Z,23.90
2022-08-07T01:08:09.140Z,23.90
2022-08-07T01:09:12.081Z,23.90
2022-08-07T01:10:34.962Z,23.90
2022-08-07T01:12:09.677Z,23.90
2022-08-07T01:13:00.354Z,23.80
2022-08-07T01:14:06.031Z,23.90
2022-08-07T01:15:11.928Z,23.90
2022-08-07T01:16:29.929Z,23.90
2022-08-07T01:17:34.698Z,23.90
2022-08-07T01:18:38.234Z,23.90
2022-08-07T01:19:44.924Z,23.90
2022-08-07T01:21:22.545Z,23.90
2022-08-07T01:22:29.723Z,23.90
2022-08-07T01:23:39.390Z,23.90
2022-08-07T01:24:47.450Z,23.90
2022-08-07T01:25:55.642Z,23.90
2022-08-07T01:27:00.800Z,23.90
2022-08-07T01:28:04.489Z,24.00
2022-08-07T01:29:06.969Z,24.00
2022-08-07T01:30:10.788Z,24.00
2022-08-07T01:31:15.480Z,24.00
2022-08-07T01:32:22.338Z,24.00
2022-08-07T01:33:30.189Z,24.10
2022-08-07T01:34:49.827Z,24.00
2022-08-07T01:35:54.450Z,24.00
2022-08-07T01:37:12.164Z,24.00
2022-08-07T01:38:25.109Z,24.10
2022-08-07T01:39:40.826Z,24.10
2022-08-07T01:40:58.771Z,24.10
2022-08-07T01:42:37.075Z,24.10
2022-08-07T01:43:25.909Z,24.10
2022-08-07T01:44:28.851Z,24.10
2022-08-07T01:45:36.871Z,24.10
2022-08-07T01:46:48.303Z,24.10
2022-08-07T01:48:16.835Z,24.10
2022-08-07T01:49:14.086Z,24.10
2022-08-07T01:50:22.756Z,24.10
2022-08-07T01:52:04.091Z,24.10
2022-08-07T01:52:57.709Z,24.10
2022-08-07T01:54:11.994Z,24.00
2022-08-07T01:55:34.359Z,24.00
2022-08-07T01:56:49.476Z,24.00
2022-08-07T01:58:05.953Z,24.00
2022-08-07T01:59:09.768Z,24.00
2022-08-07T02:00:18.511Z,24.00
2022-08-07T02:02:02.761Z,24.00
2022-08-07T02:03:11.955Z,23.90
2022-08-07T02:04:32.233Z,23.90
2022-08-07T02:06:00.847Z,23.90
2022-08-07T02:07:07.829Z,23.90
2022-08-07T02:08:16.710Z,23.90
2022-08-07T02:09:52.087Z,23.90
2022-08-07T02:10:43.662Z,23.80
2022-08-07T02:12:03.923Z,23.80
2022-08-07T02:13:10.331Z,23.80
2022-08-07T02:14:40.181Z,23.80
2022-08-07T02:15:48.886Z,23.80
2022-08-07T02:16:56.817Z,23.80
2022-08-07T02:18:01.695Z,23.80
2022-08-07T02:20:07.590Z,23.80
2022-08-07T02:20:31.077Z,23.80
2022-08-07T02:21:56.311Z,23.80
2022-08-07T02:23:02.111Z,23.80
2022-08-07T02:24:05.305Z,23.80
2022-08-07T02:25:13.799Z,23.80
2022-08-07T02:26:33.105Z,23.80
2022-08-07T02:27:41.123Z,23.80
2022-08-07T02:28:43.934Z,23.80
2022-08-07T02:29:54.503Z,23.80
2022-08-07T02:31:04.702Z,23.80
2022-08-07T02:32:23.561Z,23.80
2022-08-07T02:33:32.864Z,23.80
2022-08-07T02:34:53.366Z,23.80
2022-08-07T02:36:29.878Z,23.80
2022-08-07T02:37:23.662Z,23.80
2022-08-07T02:38:31.687Z,23.80
2022-08-07T02:39:42.872Z,23.80
2022-08-07T02:40:55.304Z,23.70
2022-08-07T02:41:58.741Z,23.80
2022-08-07T02:43:07.733Z,23.80
2022-08-07T02:44:11.756Z,23.80
2022-08-07T02:45:57.560Z,23.80
2022-08-07T02:46:46.669Z,23.80
2022-08-07T02:47:49.603Z,23.80
2022-08-07T02:48:54.877Z,23.80
2022-08-07T02:49:59.974Z,23.80
2022-08-07T02:51:28.755Z,23.80
2022-08-07T02:52:34.893Z,23.80
2022-08-07T02:53:39.122Z,23.80
2022-08-07T02:54:45.606Z,23.80
2022-08-07T02:56:03.934Z,23.80
2022-08-07T02:57:13.076Z,23.70
2022-08-07T02:58:21.781Z,23.80
2022-08-07T02:59:27.657Z,23.70
2022-08-07T03:00:33.882Z,23.70
2022-08-07T03:01:39.975Z,23.70
2022-08-07T03:02:54.802Z,23.70
2022-08-07T03:03:58.984Z,23.70
2022-08-07T03:05:06.798Z,23.70
2022-08-07T03:06:16.308Z,23.70
2022-08-07T03:07:21.533Z,23.70
2022-08-07T03:08:43.453Z,23.70
2022-08-07T03:09:50.628Z,23.80
2022-08-07T03:10:55.761Z,23.80
2022-08-07T03:12:05.221Z,23.80
2022-08-07T03:13:10.309Z,23.80
2022-08-07T03:14:13.379Z,23.80
2022-08-07T03:15:30.127Z,23.80
2022-08-07T03:16:41.731Z,23.80
2022-08-07T03:17:53.243Z,23.80
2022-08-07T03:18:58.171Z,23.80
2022-08-07T03:20:00.929Z,23.80
2022-08-07T03:21:04.933Z,23.80
2022-08-07T03:22:18.809Z,23.80
2022-08-07T03:23:21.955Z,23.70
2022-08-07T03:24:37.005Z,23.70
2022-08-07T03:25:41.993Z,23.70
2022-08-07T03:26:58.534Z,23.70
2022-08-07T03:28:09.671Z,23.70
2022-08-07T03:29:36.823Z,23.70
2022-08-07T03:30:41.271Z,23.70
2022-08-07T03:31:46.496Z,23.70
2022-08-07T03:32:58.286Z,23.70
2022-08-07T03:34:01.670Z,23.70
2022-08-07T03:35:17.630Z,23.60
2022-08-07T03:36:23.300Z,23.60
2022-08-07T03:37:32.843Z,23.60
2022-08-07T03:38:40.136Z,23.60
2022-08-07T03:40:00.070Z,23.50
2022-08-07T03:41:06.097Z,23.50
2022-08-07T03:42:13.184Z,23.50
2022-08-07T03:43:16.637Z,23.50
2022-08-07T03:44:34.243Z,23.50
2022-08-07T03:45:39.812Z,23.50
2022-08-07T03:47:10.990Z,23.40
2022-08-07T03:48:11.543Z,23.40
2022-08-07T03:49:14.608Z,23.40
2022-08-07T03:50:22.885Z,23.40
2022-08-07T03:51:30.941Z,23.40
2022-08-07T03:52:49.570Z,23.40
2022-08-07T03:54:33.170Z,23.30
2022-08-07T03:55:15.104Z,23.30
2022-08-07T03:56:32.759Z,23.30
2022-08-07T03:58:32.573Z,23.30
2022-08-07T03:59:08.410Z,23.30
2022-08-07T04:00:15.378Z,23.20
2022-08-07T04:01:26.941Z,23.20
2022-08-07T04:02:29.695Z,23.20
2022-08-07T04:03:49.486Z,23.20
2022-08-07T04:04:55.495Z,23.10
2022-08-07T04:06:01.037Z,23.10
2022-08-07T04:07:16.809Z,23.10
2022-08-07T04:08:21.658Z,23.00
2022-08-07T04:09:26.024Z,23.00
2022-08-07T04:10:54.228Z,23.00
2022-08-07T04:12:24.309Z,23.00
2022-08-07T04:14:09.423Z,23.00
2022-08-07T04:14:56.440Z,23.00
2022-08-07T04:15:59.173Z,23.00
2022-08-07T04:17:03.102Z,22.90
2022-08-07T04:18:56.894Z,22.90
2022-08-07T04:19:51.000Z,22.90
2022-08-07T04:20:54.759Z,22.90
2022-08-07T04:22:05.443Z,22.80
2022-08-07T04:23:19.194Z,22.80
2022-08-07T04:24:33.772Z,22.80
2022-08-07T04:25:41.020Z,22.80
2022-08-07T04:26:45.715Z,22.80
2022-08-07T04:28:00.536Z,22.70
2022-08-07T04:29:06.438Z,22.60
2022-08-07T04:30:21.363Z,22.60
2022-08-07T04:32:03.313Z,22.60
2022-08-07T04:33:10.009Z,22.50
2022-08-07T04:34:24.242Z,22.50
2022-08-07T04:35:39.584Z,22.50
2022-08-07T04:36:48.831Z,22.50
2022-08-07T04:38:06.447Z,22.50
2022-08-07T04:39:11.058Z,22.50
2022-08-07T04:40:15.803Z,22.50
2022-08-07T04:41:19.291Z,22.50
2022-08-07T04:42:30.862Z,22.50
2022-08-07T04:44:09.729Z,22.50
2022-08-07T04:45:02.800Z,22.50
2022-08-07T04:46:12.333Z,22.40
2022-08-07T04:48:01.324Z,22.50
2022-08-07T04:48:55.517Z,22.50
2022-08-07T04:50:03.980Z,22.50
2022-08-07T04:51:15.456Z,22.50
2022-08-07T04:52:35.958Z,22.50
2022-08-07T04:54:05.225Z,22.50
2022-08-07T04:58:12.382Z,22.50
2022-08-07T04:58:12.788Z,22.50
2022-08-07T04:58:27.463Z,22.60
2022-08-07T05:00:14.172Z,22.60
2022-08-07T05:01:21.299Z,22.60
2022-08-07T05:02:50.570Z,22.70
2022-08-07T05:04:08.920Z,22.70
2022-08-07T05:05:52.903Z,22.70
2022-08-07T05:06:51.664Z,22.70
2022-08-07T05:08:59.073Z,22.70
2022-08-07T05:10:08.217Z,22.70
2022-08-07T05:11:57.639Z,22.80
2022-08-07T05:14:44.497Z,22.80
2022-08-07T05:14:55.214Z,22.80
2022-08-07T05:15:58.025Z,22.80
2022-08-07T05:17:05.826Z,22.90
2022-08-07T05:18:34.493Z,22.80
2022-08-07T05:19:44.929Z,22.80
2022-08-07T05:20:53.617Z,22.70
2022-08-07T05:22:01.756Z,22.70
2022-08-07T05:23:15.800Z,22.80
2022-08-07T05:24:24.595Z,22.80
2022-08-07T05:25:36.758Z,22.80
2022-08-07T05:26:57.792Z,22.70
2022-08-07T05:28:20.141Z,22.80
2022-08-07T05:29:26.069Z,22.80
2022-08-07T05:30:43.269Z,22.90
2022-08-07T05:31:52.962Z,22.90
2022-08-07T05:33:02.414Z,23.00
2022-08-07T05:34:11.018Z,23.00
2022-08-07T05:35:16.086Z,23.00
2022-08-07T05:36:22.392Z,23.10
2022-08-07T05:37:26.408Z,23.10
2022-08-07T05:39:01.046Z,23.20
2022-08-07T05:40:13.705Z,23.20
2022-08-07T05:41:21.849Z,23.30
2022-08-07T05:42:33.723Z,23.30
2022-08-07T05:43:50.169Z,23.40
2022-08-07T05:45:14.670Z,23.50
2022-08-07T05:46:26.552Z,23.50
2022-08-07T05:47:38.492Z,23.60
2022-08-07T05:48:58.413Z,23.60
2022-08-07T05:50:04.089Z,23.70
2022-08-07T05:51:08.285Z,23.70
2022-08-07T05:52:11.627Z,23.80
2022-08-07T05:54:13.955Z,23.80
2022-08-07T05:54:53.250Z,23.90
2022-08-07T05:56:01.844Z,23.90
2022-08-07T05:57:06.605Z,23.90
2022-08-07T05:58:10.504Z,24.00
2022-08-07T05:59:15.196Z,24.00
2022-08-07T06:00:19.666Z,24.00
2022-08-07T06:01:34.740Z,24.00
2022-08-07T06:02:39.826Z,24.10
2022-08-07T06:03:56.868Z,24.00
2022-08-07T06:05:08.133Z,24.10
2022-08-07T06:06:17.373Z,24.10
2022-08-07T06:07:23.031Z,24.10
2022-08-07T06:08:46.610Z,24.10
2022-08-07T06:10:05.232Z,24.10
2022-08-07T06:11:08.632Z,24.10
2022-08-07T06:12:12.499Z,24.20
2022-08-07T06:13:18.284Z,24.10
2022-08-07T06:14:28.641Z,24.20
2022-08-07T06:15:42.297Z,24.20
2022-08-07T06:16:55.792Z,24.20
2022-08-07T06:18:03.991Z,24.20
2022-08-07T06:19:06.943Z,24.20
2022-08-07T06:20:12.534Z,24.30
2022-08-07T06:22:15.683Z,24.30
2022-08-07T06:23:04.136Z,24.30
2022-08-07T06:24:52.302Z,24.30
2022-08-07T06:25:40.700Z,24.30
2022-08-07T06:26:57.821Z,24.40
2022-08-07T06:28:04.685Z,24.40
2022-08-07T06:29:08.542Z,24.50
2022-08-07T06:30:24.360Z,24.50
2022-08-07T06:31:47.043Z,24.50
2022-08-07T06:32:53.872Z,24.50
2022-08-07T06:33:56.421Z,24.60
2022-08-07T06:34:59.875Z,24.60
2022-08-07T06:36:13.025Z,24.60
2022-08-07T06:37:43.586Z,24.60
2022-08-07T06:38:58.703Z,24.60
2022-08-07T06:40:17.474Z,24.60
2022-08-07T06:42:02.477Z,24.70
2022-08-07T06:42:49.769Z,24.70
2022-08-07T06:44:10.735Z,24.60
2022-08-07T06:45:18.201Z,24.60
2022-08-07T06:46:35.069Z,24.60
2022-08-07T06:47:48.184Z,24.60
2022-08-07T06:49:04.314Z,24.60
2022-08-07T06:50:08.585Z,24.70
2022-08-07T06:51:31.341Z,24.70
2022-08-07T06:52:39.412Z,24.70
2022-08-07T06:55:30.202Z,24.80
2022-08-07T06:55:32.466Z,24.80
2022-08-07T06:56:48.561Z,24.90
2022-08-07T06:58:01.458Z,24.90
2022-08-07T07:00:12.995Z,24.90
2022-08-07T07:00:42.395Z,24.90
2022-08-07T07:01:50.994Z,24.90
2022-08-07T07:03:01.132Z,25.00
2022-08-07T07:04:28.091Z,25.00
2022-08-07T07:06:05.016Z,25.00
2022-08-07T07:07:01.034Z,25.00
2022-08-07T07:08:07.388Z,25.00
2022-08-07T07:09:30.839Z,25.10
2022-08-07T07:10:34.731Z,25.00
2022-08-07T07:12:08.415Z,25.10
2022-08-07T07:13:43.519Z,25.10
2022-08-07T07:14:49.381Z,25.10
2022-08-07T07:15:57.505Z,25.20
2022-08-07T07:17:04.668Z,25.20
2022-08-07T07:18:14.277Z,25.20
2022-08-07T07:19:55.546Z,25.20
2022-08-07T07:21:13.280Z,25.20
2022-08-07T07:22:36.364Z,25.30
2022-08-07T07:24:06.106Z,25.30
2022-08-07T07:25:14.118Z,25.30
2022-08-07T07:26:35.581Z,25.20
2022-08-07T07:27:56.157Z,25.30
2022-08-07T07:29:38.512Z,25.30
2022-08-07T07:30:38.533Z,25.30
2022-08-07T07:31:46.811Z,25.30
2022-08-07T07:32:50.324Z,25.30
2022-08-07T07:33:57.139Z,25.30
2022-08-07T07:35:00.355Z,25.30
2022-08-07T07:36:13.428Z,25.30
2022-08-07T07:37:45.480Z,25.40
2022-08-07T07:38:43.378Z,25.40
2022-08-07T07:39:54.679Z,25.40
2022-08-07T07:41:02.094Z,25.40
2022-08-07T07:42:13.547Z,25.40
2022-08-07T07:43:27.647Z,25.40
2022-08-07T07:44:45.494Z,25.40
2022-08-07T07:46:36.710Z,25.50
2022-08-07T07:47:22.954Z,25.50
2022-08-07T07:48:35.857Z,25.40
2022-08-07T07:50:31.436Z,25.40
2022-08-07T07:51:02.038Z,25.40
2022-08-07T07:52:05.715Z,25.50
2022-08-07T07:53:20.241Z,25.50
2022-08-07T07:54:26.573Z,25.50
2022-08-07T07:55:37.576Z,25.50
2022-08-07T07:56:48.649Z,25.50
2022-08-07T07:57:53.993Z,25.50
2022-08-07T07:59:01.985Z,25.50
2022-08-07T08:00:04.796Z,25.50
2022-08-07T08:02:02.512Z,25.50
2022-08-07T08:02:38.305Z,25.50
2022-08-07T08:04:11.127Z,25.50
2022-08-07T08:05:16.240Z,25.50
2022-08-07T08:06:19.326Z,25.50
2022-08-07T08:07:24.329Z,25.60
2022-08-07T08:08:41.959Z,25.60
2022-08-07T08:09:52.518Z,25.60
2022-08-07T08:11:07.995Z,25.60
2022-08-07T08:12:11.284Z,25.60
2022-08-07T08:13:15.558Z,25.70
2022-08-07T08:14:22.805Z,25.70
2022-08-07T08:15:29.490Z,25.60
2022-08-07T08:16:51.940Z,25.70
2022-08-07T08:17:57.635Z,25.70
2022-08-07T08:19:17.449Z,25.70
2022-08-07T08:20:31.776Z,25.70
2022-08-07T08:22:00.441Z,25.70
2022-08-07T08:23:28.503Z,25.70
2022-08-07T08:24:57.005Z,25.80
2022-08-07T08:26:27.457Z,25.80
2022-08-07T08:27:33.467Z,25.80
2022-08-07T08:28:43.339Z,25.80
2022-08-07T08:29:56.445Z,25.80
2022-08-07T08:31:00.564Z,25.80
2022-08-07T08:32:18.088Z,25.70
2022-08-07T08:33:23.004Z,25.70
2022-08-07T08:34:28.918Z,25.80
2022-08-07T08:35:39.575Z,25.80
2022-08-07T08:36:58.081Z,25.80
2022-08-07T08:38:03.496Z,25.80
2022-08-07T08:39:08.843Z,25.80
2022-08-07T08:40:23.503Z,25.80
2022-08-07T08:41:58.356Z,25.80
2022-08-07T08:43:12.511Z,25.80
2022-08-07T08:44:29.323Z,25.80
2022-08-07T08:45:59.238Z,25.80
2022-08-07T08:47:10.026Z,25.80
2022-08-07T08:48:28.469Z,25.80
2022-08-07T08:49:46.846Z,25.80
2022-08-07T08:51:14.717Z,25.80
2022-08-07T08:52:35.965Z,25.80
2022-08-07T08:53:45.818Z,25.80
2022-08-07T08:54:56.151Z,25.80
2022-08-07T08:56:24.493Z,25.80
2022-08-07T08:57:59.396Z,25.80
2022-08-07T08:59:02.335Z,25.90
2022-08-07T09:00:09.702Z,25.80
2022-08-07T09:01:21.711Z,25.90
2022-08-07T09:02:36.697Z,25.90
2022-08-07T09:03:55.627Z,25.80
2022-08-07T09:05:05.001Z,25.80
2022-08-07T09:06:16.670Z,25.90
2022-08-07T09:07:46.316Z,25.90
2022-08-07T09:08:57.935Z,25.80
2022-08-07T09:10:06.235Z,25.80
2022-08-07T09:11:11.195Z,25.90
2022-08-07T09:12:34.961Z,25.90
2022-08-07T09:13:46.182Z,25.80
2022-08-07T09:14:58.841Z,25.90
2022-08-07T09:16:30.550Z,25.90
2022-08-07T09:17:58.888Z,25.90
2022-08-07T09:19:51.000Z,25.90
2022-08-07T09:20:57.828Z,25.90
2022-08-07T09:24:27.167Z,25.90
2022-08-07T09:24:53.976Z,25.90
2022-08-07T09:25:14.457Z,25.90
2022-08-07T09:26:29.868Z,26.00
2022-08-07T09:28:00.016Z,26.00
2022-08-07T09:30:05.111Z,26.00
2022-08-07T09:30:54.674Z,26.00
2022-08-07T09:32:21.651Z,26.00
2022-08-07T09:33:57.334Z,26.00
2022-08-07T09:35:04.449Z,26.00
2022-08-07T09:36:35.875Z,26.00
2022-08-07T09:37:53.489Z,26.00
2022-08-07T09:38:59.383Z,26.00
2022-08-07T09:40:24.486Z,26.00
2022-08-07T09:41:36.437Z,26.00
2022-08-07T09:43:04.891Z,26.10
2022-08-07T09:44:46.605Z,26.00
2022-08-07T09:47:51.687Z,26.10
2022-08-07T09:47:59.632Z,26.00
2022-08-07T09:50:02.809Z,26.00
2022-08-07T09:50:51.400Z,26.10
2022-08-07T09:52:34.491Z,26.10
2022-08-07T09:53:41.363Z,26.10
2022-08-07T09:54:50.264Z,26.10
2022-08-07T09:56:04.397Z,26.10
2022-08-07T09:57:25.431Z,26.10
2022-08-07T09:58:38.376Z,26.10
2022-08-07T10:00:01.270Z,26.10
2022-08-07T10:01:50.970Z,26.10
2022-08-07T10:02:38.002Z,26.10
2022-08-07T10:04:14.473Z,26.10
2022-08-07T10:05:59.026Z,26.10
2022-08-07T10:06:55.479Z,26.20
2022-08-07T10:08:04.057Z,26.10
2022-08-07T10:09:42.777Z,26.10
2022-08-07T10:11:16.820Z,26.10
2022-08-07T10:12:41.952Z,26.20
2022-08-07T10:14:07.352Z,26.10
2022-08-07T10:15:15.501Z,26.10
2022-08-07T10:16:24.466Z,26.20
2022-08-07T10:17:29.892Z,26.10
2022-08-07T10:18:59.400Z,26.20
2022-08-07T10:20:21.951Z,26.20
2022-08-07T10:22:16.281Z,26.20
2022-08-07T10:24:05.620Z,26.10
2022-08-07T10:25:04.215Z,26.20
2022-08-07T10:26:24.847Z,26.20
2022-08-07T10:27:53.455Z,26.20
2022-08-07T10:28:58.450Z,26.20
2022-08-07T10:30:00.989Z,26.20
2022-08-07T10:31:22.737Z,26.20
2022-08-07T10:32:51.530Z,26.20
2022-08-07T10:34:06.218Z,26.20
2022-08-07T10:35:20.553Z,26.20
2022-08-07T10:36:36.340Z,26.20
2022-08-07T10:38:00.963Z,26.20
2022-08-07T10:39:20.209Z,26.20
2022-08-07T10:40:31.055Z,26.20
2022-08-07T10:41:51.838Z,26.20
2022-08-07T10:43:10.123Z,26.20
2022-08-07T10:44:19.541Z,26.20
2022-08-07T10:45:57.491Z,26.20
2022-08-07T10:47:00.223Z,26.20
2022-08-07T10:48:09.746Z,26.20
2022-08-07T10:49:24.556Z,26.20
2022-08-07T10:50:49.989Z,26.20
2022-08-07T10:52:13.818Z,26.20
2022-08-07T10:53:43.988Z,26.20
2022-08-07T10:55:01.907Z,26.20
2022-08-07T10:56:49.201Z,26.30
2022-08-07T10:58:00.552Z,26.20
2022-08-07T10:59:10.261Z,26.30
2022-08-07T11:00:36.901Z,26.30
2022-08-07T11:02:05.500Z,26.30
2022-08-07T11:03:28.028Z,26.30
2022-08-07T11:04:46.314Z,26.30
2022-08-07T11:05:58.484Z,26.40
2022-08-07T11:07:03.484Z,26.40
2022-08-07T11:08:36.583Z,26.40
2022-08-07T11:10:07.408Z,26.40
2022-08-07T11:11:13.939Z,26.40
2022-08-07T11:12:19.002Z,26.40
2022-08-07T11:14:46.518Z,26.40
2022-08-07T11:15:02.548Z,26.40
2022-08-07T11:16:30.749Z,26.40
2022-08-07T11:17:43.354Z,26.40
2022-08-07T11:18:58.498Z,26.50
2022-08-07T11:20:15.856Z,26.40
2022-08-07T11:21:19.175Z,26.40
2022-08-07T11:22:38.270Z,26.40
2022-08-07T11:24:08.502Z,26.40
2022-08-07T11:25:20.745Z,26.40
2022-08-07T11:26:28.206Z,26.40
2022-08-07T11:28:01.349Z,26.40
2022-08-07T11:29:13.099Z,26.40
2022-08-07T11:30:48.547Z,26.40
2022-08-07T11:32:05.093Z,26.40
2022-08-07T11:33:17.074Z,26.40
2022-08-07T11:34:19.533Z,26.40
2022-08-07T11:35:29.322Z,26.40
2022-08-07T11:36:39.278Z,26.50
2022-08-07T11:37:58.364Z,26.50
2022-08-07T11:39:09.797Z,26.50
2022-08-07T11:40:23.026Z,26.50
2022-08-07T11:42:01.714Z,26.50
2022-08-07T11:43:01.809Z,26.50
2022-08-07T11:44:23.526Z,26.50
2022-08-07T11:45:35.894Z,26.50
2022-08-07T11:46:46.963Z,26.50
2022-08-07T11:47:58.813Z,26.50
2022-08-07T11:49:50.804Z,26.50
2022-08-07T11:50:57.832Z,26.60
2022-08-07T11:52:19.079Z,26.60
2022-08-07T11:53:33.754Z,26.60
2022-08-07T11:54:54.602Z,26.60
2022-08-07T11:56:15.754Z,26.60
2022-08-07T11:57:20.557Z,26.60
2022-08-07T11:58:42.770Z,26.60
2022-08-07T12:00:10.853Z,26.60
2022-08-07T12:01:59.571Z,26.60
2022-08-07T12:03:00.446Z,26.60
2022-08-07T12:04:13.062Z,26.60
2022-08-07T12:05:41.283Z,26.60
2022-08-07T12:07:00.561Z,26.60
2022-08-07T12:08:11.391Z,26.60
2022-08-07T12:09:35.929Z,26.60
2022-08-07T12:10:41.943Z,26.70
2022-08-07T12:12:09.576Z,26.70
2022-08-07T12:13:36.660Z,26.70
2022-08-07T12:14:56.221Z,26.70
2022-08-07T12:16:09.008Z,26.70
2022-08-07T12:17:19.917Z,26.70
2022-08-07T12:18:34.998Z,26.70
2022-08-07T12:20:03.322Z,26.70
2022-08-07T12:21:08.504Z,26.70
2022-08-07T12:22:38.035Z,26.70
2022-08-07T12:24:07.345Z,26.70
2022-08-07T12:26:22.201Z,26.70
2022-08-07T12:27:03.319Z,26.70
2022-08-07T12:28:44.760Z,26.70
2022-08-07T12:30:13.673Z,26.70
2022-08-07T12:31:24.541Z,26.70
2022-08-07T12:32:45.285Z,26.70
2022-08-07T12:34:01.305Z,26.70
2022-08-07T12:35:08.337Z,26.80
2022-08-07T12:36:11.376Z,26.80
2022-08-07T12:37:23.454Z,26.80
2022-08-07T12:38:42.553Z,26.80
2022-08-07T12:39:50.625Z,26.80
2022-08-07T12:40:54.256Z,26.80
2022-08-07T12:41:58.529Z,26.80
2022-08-07T12:43:03.021Z,26.80
2022-08-07T12:44:17.320Z,26.80
2022-08-07T12:45:21.616Z,26.80
2022-08-07T12:46:32.677Z,26.80
2022-08-07T12:47:56.242Z,26.80
2022-08-07T12:49:39.523Z,26.80
2022-08-07T12:50:49.454Z,26.80
2022-08-07T12:52:12.235Z,26.80
2022-08-07T12:53:18.634Z,26.80
2022-08-07T12:54:38.632Z,26.80
2022-08-07T12:56:04.239Z,26.80
2022-08-07T12:57:12.389Z,26.80
2022-08-07T12:58:28.210Z,26.80
2022-08-07T12:59:54.920Z,26.80
2022-08-07T13:01:13.121Z,26.80
2022-08-07T13:02:35.021Z,26.80
2022-08-07T13:04:03.144Z,26.80
2022-08-07T13:05:14.852Z,26.80
2022-08-07T13:06:29.429Z,26.80
2022-08-07T13:08:14.392Z,26.80
2022-08-07T13:09:12.478Z,26.80
2022-08-07T13:10:51.530Z,26.80
2022-08-07T13:12:15.162Z,26.90
2022-08-07T13:13:47.326Z,26.90
2022-08-07T13:15:01.743Z,26.90
2022-08-07T13:16:16.921Z,26.90
2022-08-07T13:17:41.006Z,26.90
2022-08-07T13:19:02.612Z,26.90
2022-08-07T13:20:07.809Z,26.90
2022-08-07T13:21:37.265Z,26.90
2022-08-07T13:22:52.503Z,26.90
2022-08-07T13:24:04.508Z,26.90
2022-08-07T13:25:28.930Z,26.90
2022-08-07T13:26:55.310Z,26.90
2022-08-07T13:28:12.575Z,26.90
2022-08-07T13:29:34.641Z,26.90
2022-08-07T13:30:40.500Z,26.90
2022-08-07T13:31:57.237Z,26.90
2022-08-07T13:33:06.333Z,26.90
2022-08-07T13:34:44.710Z,26.90
2022-08-07T13:36:00.704Z,26.90
2022-08-07T13:37:20.335Z,26.90
2022-08-07T13:38:41.979Z,26.90
2022-08-07T13:40:35.914Z,26.90
2022-08-07T13:41:30.241Z,26.90
2022-08-07T13:42:39.729Z,26.90
2022-08-07T13:43:52.679Z,26.90
2022-08-07T13:46:07.282Z,27.00
2022-08-07T13:46:28.876Z,27.00
2022-08-07T13:48:07.706Z,27.00
2022-08-07T13:49:00.860Z,27.00
2022-08-07T13:50:34.182Z,27.00
2022-08-07T13:51:28.058Z,27.00
2022-08-07T13:52:49.475Z,27.00
2022-08-07T13:54:03.063Z,27.00
2022-08-07T13:55:07.071Z,27.00
2022-08-07T13:56:09.841Z,27.00
2022-08-07T13:57:24.261Z,27.00
2022-08-07T13:58:56.093Z,27.00
2022-08-07T14:00:01.997Z,27.00
2022-08-07T14:01:16.570Z,27.00
2022-08-07T14:02:29.750Z,27.00
2022-08-07T14:04:09.589Z,27.00
2022-08-07T14:05:07.526Z,27.00
2022-08-07T14:06:12.103Z,27.00
2022-08-07T14:07:14.840Z,27.00
2022-08-07T14:08:20.237Z,27.00
2022-08-07T14:10:01.344Z,27.00
2022-08-07T14:11:14.979Z,27.00
2022-08-07T14:12:27.647Z,27.00
2022-08-07T14:13:33.433Z,27.00
2022-08-07T14:14:41.898Z,27.00
2022-08-07T14:15:51.652Z,27.00
2022-08-07T14:16:57.180Z,27.00
2022-08-07T14:18:23.832Z,27.00
2022-08-07T14:20:42.554Z,27.00
2022-08-07T14:21:21.092Z,27.00
2022-08-07T14:22:34.111Z,27.00
2022-08-07T14:24:00.369Z,26.90
2022-08-07T14:25:03.419Z,26.90
2022-08-07T14:26:10.598Z,26.90
2022-08-07T14:28:21.086Z,26.90
2022-08-07T14:31:56.498Z,26.90
2022-08-07T14:33:04.429Z,26.90
2022-08-07T14:34:07.694Z,26.90
2022-08-07T14:35:45.124Z,26.90
2022-08-07T14:36:40.431Z,26.90
2022-08-07T14:38:05.448Z,26.90
2022-08-07T14:39:08.644Z,27.00
2022-08-07T14:40:27.108Z,26.90
2022-08-07T14:42:19.779Z,27.00
2022-08-07T14:44:22.872Z,27.00
2022-08-07T14:45:48.997Z,27.00
2022-08-07T14:47:08.738Z,27.00
2022-08-07T14:48:19.829Z,27.00
2022-08-07T14:50:53.984Z,27.00
2022-08-07T14:54:45.613Z,27.00
2022-08-07T14:55:56.221Z,27.00
2022-08-07T14:58:29.202Z,27.00
2022-08-07T15:00:05.404Z,27.00
2022-08-07T15:00:59.430Z,27.00
2022-08-07T15:03:51.388Z,27.00
2022-08-07T15:04:55.251Z,27.10
2022-08-07T15:06:03.732Z,27.10
2022-08-07T15:07:17.617Z,27.10
2022-08-07T15:08:32.370Z,27.10
2022-08-07T15:09:59.210Z,27.10
2022-08-07T15:11:10.056Z,27.10
2022-08-07T15:12:25.642Z,27.10
2022-08-07T15:13:35.901Z,27.10
2022-08-07T15:14:56.137Z,27.10
2022-08-07T15:16:03.396Z,27.10
2022-08-07T15:17:16.785Z,27.10
2022-08-07T15:18:33.805Z,27.20
2022-08-07T15:21:08.177Z,27.20
2022-08-07T15:22:33.554Z,27.10
2022-08-07T15:25:14.313Z,27.20
2022-08-07T15:25:18.679Z,27.10
2022-08-07T15:26:28.643Z,27.20
2022-08-07T15:27:34.341Z,27.20
2022-08-07T15:30:16.465Z,27.20
2022-08-07T15:32:00.846Z,27.20
2022-08-07T15:34:15.077Z,27.20
2022-08-07T15:36:01.228Z,27.20
2022-08-07T15:37:03.802Z,27.20
2022-08-07T15:39:52.098Z,27.20
2022-08-07T15:42:43.602Z,27.20
2022-08-07T15:44:09.633Z,27.20
2022-08-07T15:45:13.836Z,27.20
2022-08-07T15:46:31.234Z,27.20
2022-08-07T15:48:01.330Z,27.20
2022-08-07T15:49:14.291Z,27.20
2022-08-07T15:50:37.898Z,27.20
2022-08-07T15:53:05.460Z,27.20
2022-08-07T15:54:11.950Z,27.20
2022-08-07T15:55:18.072Z,27.20
2022-08-07T15:56:29.680Z,27.20
2022-08-07T15:57:47.866Z,27.20
2022-08-07T15:58:58.821Z,27.20
2022-08-07T16:00:04.397Z,27.20
2022-08-07T16:01:13.605Z,27.20
2022-08-07T16:02:26.758Z,27.20
2022-08-07T16:03:47.136Z,27.20
2022-08-07T16:04:52.905Z,27.20
2022-08-07T16:05:55.733Z,27.20
2022-08-07T16:07:04.574Z,27.20
2022-08-07T16:08:30.579Z,27.20
2022-08-07T16:09:41.113Z,27.30
2022-08-07T16:10:54.401Z,27.30
2022-08-07T16:12:15.425Z,27.20
2022-08-07T16:13:59.101Z,27.20
2022-08-07T16:15:06.251Z,27.20
2022-08-07T16:16:48.784Z,27.20
2022-08-07T16:18:04.044Z,27.30
2022-08-07T16:19:09.633Z,27.30
2022-08-07T16:20:33.329Z,27.30
2022-08-07T16:22:03.572Z,27.30
2022-08-07T16:23:25.149Z,27.30
2022-08-07T16:25:06.276Z,27.30